Mitsukawa Maru — JD2495 — position and weather

sailwx.info

Track history (hours):
 
Tides and Currents Weather Stations Pressure Air Temp Water Temp Dewpoint Dewpoint Depression Visibility Wind Speed Wind Dir Waves Ship Positions

Mitsukawa Maru

Last reported at 2016-Dec-26 16:32 UTC. Time now 2017-Jan-17 04:58 UTC.
Position N 34°35' E 134°53'.
Warning: this ship's position is 21 days out of date.

Length 105 m; draft 4.2 m.

Type: Ship (hazmat cat D). MMSI: 431000326.

Date/timePositionNaut miles runAvg speedWind from/ knotsBaromVisibWave heightAir tempDewpointWater temp
2016-Dec-26 16:32N 34°35' E 134°53'1010.1
2016-Dec-26 15:33N 34°36' E 135°05'1312.7
2016-Dec-26 14:33N 34°23' E 135°02'1312.8
2016-Dec-26 13:33N 34°11' E 134°60'23711.3
2016-Dec-25 16:30N 35°06' E 139°40'1111.8
2016-Dec-25 15:33N 35°17' E 139°45'1010.0
2016-Dec-25 14:33N 35°27' E 139°47'1413.6
2016-Dec-25 13:33N 35°34' E 140°01'5 0.3
2016-Dec-24 22:17N 35°35' E 140°06'6 7.8
2016-Dec-24 21:31N 35°34' E 139°59'0 0.3
2016-Dec-24 20:30N 35°34' E 139°59'0 0.0
2016-Dec-24 19:33N 35°34' E 139°59'0 0.0
2016-Dec-24 18:33N 35°34' E 139°59'5 5.2
2016-Dec-24 17:33N 35°30' E 139°54'1211.6
2016-Dec-24 16:34N 35°21' E 139°45'1111.1
2016-Dec-24 15:33N 35°10' E 139°46'24710.1
2016-Dec-23 15:14N 33°57' E 135°00'912.8
2016-Dec-23 14:34N 34°06' E 134°59'1513.5
2016-Dec-23 13:28N 34°21' E 134°60'9 9.5
2016-Dec-23 12:33N 34°24' E 135°09'0 0.1
2016-Dec-23 11:32N 34°24' E 135°09'0 0.1
2016-Dec-23 10:29N 34°24' E 135°09'0 0.0
2016-Dec-23 09:32N 34°24' E 135°09'0 0.0
2016-Dec-23 08:29N 34°24' E 135°09'0 0.0
2016-Dec-23 07:32N 34°24' E 135°09'0 0.0
2016-Dec-23 06:32N 34°24' E 135°09'0 0.0
2016-Dec-23 05:32N 34°24' E 135°09'0 0.0
2016-Dec-23 04:23N 34°24' E 135°09'0 0.0
2016-Dec-23 03:32N 34°24' E 135°09'0 0.0
2016-Dec-23 02:32N 34°24' E 135°09'0 0.0
2016-Dec-23 01:32N 34°24' E 135°09'0 0.0
2016-Dec-23 00:32N 34°24' E 135°09'0 0.1
2016-Dec-22 23:30N 34°24' E 135°09'910.0
2016-Dec-22 22:33N 34°33' E 135°05'10 9.5
2016-Dec-22 21:31N 34°35' E 134°53'  
Track history (hours):
 
Tides and Currents Weather Stations Pressure Air Temp Water Temp Dewpoint Dewpoint Depression Visibility Wind Speed Wind Dir Waves Ship Positions

Mitsukawa Maru

Last reported at 2016-Dec-26 16:32 UTC. Time now 2017-Jan-17 04:58 UTC.
Position N 34°35' E 134°53'.
Warning: this ship's position is 21 days out of date.

Length 105 m; draft 4.2 m.

Type: Ship (hazmat cat D). MMSI: 431000326.

Date/timePositionNaut miles runAvg speedWind from/ knotsBaromVisibWave heightAir tempDewpointWater temp
2016-Dec-26 16:32N 34°35' E 134°53'1010.1
2016-Dec-26 15:33N 34°36' E 135°05'1312.7
2016-Dec-26 14:33N 34°23' E 135°02'1312.8
2016-Dec-26 13:33N 34°11' E 134°60'23711.3
2016-Dec-25 16:30N 35°06' E 139°40'1111.8
2016-Dec-25 15:33N 35°17' E 139°45'1010.0
2016-Dec-25 14:33N 35°27' E 139°47'1413.6
2016-Dec-25 13:33N 35°34' E 140°01'5 0.3
2016-Dec-24 22:17N 35°35' E 140°06'6 7.8
2016-Dec-24 21:31N 35°34' E 139°59'0 0.3
2016-Dec-24 20:30N 35°34' E 139°59'0 0.0
2016-Dec-24 19:33N 35°34' E 139°59'0 0.0
2016-Dec-24 18:33N 35°34' E 139°59'5 5.2
2016-Dec-24 17:33N 35°30' E 139°54'1211.6
2016-Dec-24 16:34N 35°21' E 139°45'1111.1
2016-Dec-24 15:33N 35°10' E 139°46'24710.1
2016-Dec-23 15:14N 33°57' E 135°00'912.8
2016-Dec-23 14:34N 34°06' E 134°59'1513.5
2016-Dec-23 13:28N 34°21' E 134°60'9 9.5
2016-Dec-23 12:33N 34°24' E 135°09'0 0.1
2016-Dec-23 11:32N 34°24' E 135°09'0 0.1
2016-Dec-23 10:29N 34°24' E 135°09'0 0.0
2016-Dec-23 09:32N 34°24' E 135°09'0 0.0
2016-Dec-23 08:29N 34°24' E 135°09'0 0.0
2016-Dec-23 07:32N 34°24' E 135°09'0 0.0
2016-Dec-23 06:32N 34°24' E 135°09'0 0.0
2016-Dec-23 05:32N 34°24' E 135°09'0 0.0
2016-Dec-23 04:23N 34°24' E 135°09'0 0.0
2016-Dec-23 03:32N 34°24' E 135°09'0 0.0
2016-Dec-23 02:32N 34°24' E 135°09'0 0.0
2016-Dec-23 01:32N 34°24' E 135°09'0 0.0
2016-Dec-23 00:32N 34°24' E 135°09'0 0.1
2016-Dec-22 23:30N 34°24' E 135°09'910.0
2016-Dec-22 22:33N 34°33' E 135°05'10 9.5
2016-Dec-22 21:31N 34°35' E 134°53'  

Dump ship's entire track history